sensor_id;sensor_type;location;lat;lon;timestamp;pressure;altitude;pressure_sealevel;temperature;humidity
17505;BME280;8870;50.950;11.762;2024-01-27T00:04:19;99723.97;;;3.73;100.00
17505;BME280;8870;50.950;11.762;2024-01-27T00:09:50;99731.13;;;3.72;100.00
17505;BME280;8870;50.950;11.762;2024-01-27T00:15:11;99727.00;;;3.66;100.00
17505;BME280;8870;50.950;11.762;2024-01-27T00:20:46;99727.16;;;3.63;100.00
17505;BME280;8870;50.950;11.762;2024-01-27T00:26:05;99745.72;;;3.65;100.00
17505;BME280;8870;50.950;11.762;2024-01-27T00:31:40;99737.38;;;3.55;100.00
17505;BME280;8870;50.950;11.762;2024-01-27T00:36:59;99748.34;;;3.49;100.00
17505;BME280;8870;50.950;11.762;2024-01-27T00:42:30;99738.63;;;3.48;100.00
17505;BME280;8870;50.950;11.762;2024-01-27T00:48:05;99754.09;;;3.41;100.00
17505;BME280;8870;50.950;11.762;2024-01-27T00:53:24;99740.59;;;3.28;100.00
17505;BME280;8870;50.950;11.762;2024-01-27T00:58:55;99780.84;;;3.39;100.00
17505;BME280;8870;50.950;11.762;2024-01-27T01:04:16;99756.59;;;3.44;100.00
17505;BME280;8870;50.950;11.762;2024-01-27T01:09:48;99767.50;;;3.39;100.00
17505;BME280;8870;50.950;11.762;2024-01-27T01:15:07;99775.06;;;3.31;100.00
17505;BME280;8870;50.950;11.762;2024-01-27T01:20:41;99791.69;;;3.19;100.00
17505;BME280;8870;50.950;11.762;2024-01-27T01:26:00;99804.22;;;3.17;100.00
17505;BME280;8870;50.950;11.762;2024-01-27T01:31:30;99806.28;;;3.12;100.00
17505;BME280;8870;50.950;11.762;2024-01-27T01:36:51;99802.81;;;3.10;100.00
17505;BME280;8870;50.950;11.762;2024-01-27T01:42:24;99805.72;;;3.05;100.00
17505;BME280;8870;50.950;11.762;2024-01-27T01:47:55;99808.44;;;3.03;100.00
17505;BME280;8870;50.950;11.762;2024-01-27T01:53:15;99804.56;;;3.11;100.00
17505;BME280;8870;50.950;11.762;2024-01-27T01:58:46;99810.03;;;3.07;100.00
17505;BME280;8870;50.950;11.762;2024-01-27T02:04:05;99801.59;;;2.99;100.00
17505;BME280;8870;50.950;11.762;2024-01-27T02:09:39;99821.84;;;3.02;100.00
17505;BME280;8870;50.950;11.762;2024-01-27T02:14:59;99829.44;;;3.10;100.00
17505;BME280;8870;50.950;11.762;2024-01-27T02:20:29;99828.56;;;3.09;100.00
17505;BME280;8870;50.950;11.762;2024-01-27T02:25:50;99827.41;;;2.97;100.00
17505;BME280;8870;50.950;11.762;2024-01-27T02:31:22;99830.94;;;2.98;100.00
17505;BME280;8870;50.950;11.762;2024-01-27T02:36:40;99810.50;;;2.98;100.00
17505;BME280;8870;50.950;11.762;2024-01-27T02:42:13;99839.06;;;2.95;100.00
17505;BME280;8870;50.950;11.762;2024-01-27T02:47:46;99853.72;;;2.86;100.00
17505;BME280;8870;50.950;11.762;2024-01-27T02:53:04;99848.53;;;2.83;100.00
17505;BME280;8870;50.950;11.762;2024-01-27T02:58:37;99838.69;;;2.85;100.00
17505;BME280;8870;50.950;11.762;2024-01-27T03:03:56;99851.13;;;2.84;100.00
17505;BME280;8870;50.950;11.762;2024-01-27T03:09:27;99859.97;;;2.85;100.00
17505;BME280;8870;50.950;11.762;2024-01-27T03:14:47;99860.13;;;2.82;100.00
17505;BME280;8870;50.950;11.762;2024-01-27T03:20:20;99864.50;;;2.83;100.00
17505;BME280;8870;50.950;11.762;2024-01-27T03:25:38;99868.19;;;2.80;100.00
17505;BME280;8870;50.950;11.762;2024-01-27T03:31:11;99869.19;;;2.77;100.00
17505;BME280;8870;50.950;11.762;2024-01-27T03:36:30;99866.47;;;2.79;100.00
17505;BME280;8870;50.950;11.762;2024-01-27T03:42:01;99861.16;;;2.79;100.00
17505;BME280;8870;50.950;11.762;2024-01-27T03:47:35;99879.06;;;2.75;100.00
17505;BME280;8870;50.950;11.762;2024-01-27T03:52:58;99888.13;;;2.71;100.00
17505;BME280;8870;50.950;11.762;2024-01-27T03:58:30;99893.59;;;2.68;100.00
17505;BME280;8870;50.950;11.762;2024-01-27T04:03:50;99907.78;;;2.69;100.00
17505;BME280;8870;50.950;11.762;2024-01-27T04:09:22;99908.72;;;2.68;100.00
17505;BME280;8870;50.950;11.762;2024-01-27T04:14:40;99914.03;;;2.68;100.00
17505;BME280;8870;50.950;11.762;2024-01-27T04:20:13;99915.78;;;2.69;100.00
17505;BME280;8870;50.950;11.762;2024-01-27T04:25:32;99918.34;;;2.70;100.00
17505;BME280;8870;50.950;11.762;2024-01-27T04:31:03;99923.88;;;2.66;100.00
17505;BME280;8870;50.950;11.762;2024-01-27T04:36:28;99932.16;;;2.59;100.00
17505;BME280;8870;50.950;11.762;2024-01-27T04:42:00;99940.53;;;2.52;100.00
17505;BME280;8870;50.950;11.762;2024-01-27T04:47:18;99935.19;;;2.52;100.00
17505;BME280;8870;50.950;11.762;2024-01-27T04:52:51;99938.63;;;2.54;100.00
17505;BME280;8870;50.950;11.762;2024-01-27T04:58:10;99941.94;;;2.59;100.00
17505;BME280;8870;50.950;11.762;2024-01-27T05:03:41;99950.88;;;2.58;100.00
17505;BME280;8870;50.950;11.762;2024-01-27T05:09:02;99945.53;;;2.58;100.00
17505;BME280;8870;50.950;11.762;2024-01-27T05:14:34;99947.41;;;2.56;100.00
17505;BME280;8870;50.950;11.762;2024-01-27T05:19:52;99936.63;;;2.59;100.00
17505;BME280;8870;50.950;11.762;2024-01-27T05:25:28;99933.03;;;2.60;100.00
17505;BME280;8870;50.950;11.762;2024-01-27T05:30:47;99931.06;;;2.64;100.00
17505;BME280;8870;50.950;11.762;2024-01-27T05:36:18;99934.75;;;2.61;100.00
17505;BME280;8870;50.950;11.762;2024-01-27T05:41:45;99937.56;;;2.58;100.00
17505;BME280;8870;50.950;11.762;2024-01-27T05:47:17;99952.72;;;2.56;100.00
17505;BME280;8870;50.950;11.762;2024-01-27T05:52:35;99935.19;;;2.52;100.00
17505;BME280;8870;50.950;11.762;2024-01-27T05:58:08;99939.78;;;2.48;100.00
17505;BME280;8870;50.950;11.762;2024-01-27T06:03:27;99936.63;;;2.40;100.00
17505;BME280;8870;50.950;11.762;2024-01-27T06:08:58;99966.09;;;2.35;100.00
17505;BME280;8870;50.950;11.762;2024-01-27T06:14:19;99976.16;;;2.28;100.00
17505;BME280;8870;50.950;11.762;2024-01-27T06:19:50;99968.25;;;2.27;100.00
17505;BME280;8870;50.950;11.762;2024-01-27T06:25:08;99973.78;;;2.22;100.00
17505;BME280;8870;50.950;11.762;2024-01-27T06:30:43;99979.47;;;2.14;100.00
17505;BME280;8870;50.950;11.762;2024-01-27T06:36:02;99975.19;;;2.10;100.00
17505;BME280;8870;50.950;11.762;2024-01-27T06:41:34;99985.25;;;2.04;100.00
17505;BME280;8870;50.950;11.762;2024-01-27T06:46:54;99989.72;;;2.03;100.00
17505;BME280;8870;50.950;11.762;2024-01-27T06:52:26;99995.06;;;2.02;100.00
17505;BME280;8870;50.950;11.762;2024-01-27T06:57:44;99997.69;;;2.03;100.00
17505;BME280;8870;50.950;11.762;2024-01-27T07:03:17;100025.31;;;1.99;100.00
17505;BME280;8870;50.950;11.762;2024-01-27T07:08:36;100013.63;;;2.03;100.00
17505;BME280;8870;50.950;11.762;2024-01-27T07:14:07;100031.44;;;2.01;100.00
17505;BME280;8870;50.950;11.762;2024-01-27T07:19:28;100039.34;;;2.03;100.00
17505;BME280;8870;50.950;11.762;2024-01-27T07:24:59;100027.06;;;2.00;100.00
17505;BME280;8870;50.950;11.762;2024-01-27T07:30:17;100037.56;;;2.03;100.00
17505;BME280;8870;50.950;11.762;2024-01-27T07:35:51;100036.63;;;2.04;100.00
17505;BME280;8870;50.950;11.762;2024-01-27T07:41:10;100036.75;;;2.01;100.00
17505;BME280;8870;50.950;11.762;2024-01-27T07:46:46;100042.47;;;2.12;100.00
17505;BME280;8870;50.950;11.762;2024-01-27T07:52:07;100034.19;;;2.19;100.00
17505;BME280;8870;50.950;11.762;2024-01-27T07:57:39;100035.56;;;2.29;100.00
17505;BME280;8870;50.950;11.762;2024-01-27T08:02:57;100044.88;;;2.38;100.00
17505;BME280;8870;50.950;11.762;2024-01-27T08:08:30;100058.88;;;2.43;100.00
17505;BME280;8870;50.950;11.762;2024-01-27T08:13:49;100062.97;;;2.50;100.00
17505;BME280;8870;50.950;11.762;2024-01-27T08:19:20;100071.28;;;2.63;100.00
17505;BME280;8870;50.950;11.762;2024-01-27T08:24:40;100066.44;;;2.71;100.00
17505;BME280;8870;50.950;11.762;2024-01-27T08:30:13;100079.47;;;2.77;100.00
17505;BME280;8870;50.950;11.762;2024-01-27T08:35:31;100080.78;;;2.88;100.00
17505;BME280;8870;50.950;11.762;2024-01-27T08:41:05;100090.91;;;2.99;100.00
17505;BME280;8870;50.950;11.762;2024-01-27T08:46:40;100098.34;;;3.11;100.00
17505;BME280;8870;50.950;11.762;2024-01-27T08:51:58;100105.97;;;3.19;100.00
17505;BME280;8870;50.950;11.762;2024-01-27T08:57:31;100106.25;;;3.32;100.00
17505;BME280;8870;50.950;11.762;2024-01-27T09:02:51;100113.72;;;3.43;100.00
17505;BME280;8870;50.950;11.762;2024-01-27T09:08:24;100115.00;;;3.53;100.00
17505;BME280;8870;50.950;11.762;2024-01-27T09:13:45;100127.81;;;3.64;100.00
17505;BME280;8870;50.950;11.762;2024-01-27T09:19:16;100122.03;;;3.73;100.00
17505;BME280;8870;50.950;11.762;2024-01-27T09:24:34;100133.09;;;3.83;100.00
17505;BME280;8870;50.950;11.762;2024-01-27T09:30:08;100145.19;;;3.90;100.00
17505;BME280;8870;50.950;11.762;2024-01-27T09:35:27;100141.34;;;3.96;100.00
17505;BME280;8870;50.950;11.762;2024-01-27T09:40:58;100131.09;;;4.06;100.00
17505;BME280;8870;50.950;11.762;2024-01-27T09:46:33;100135.97;;;4.15;100.00
17505;BME280;8870;50.950;11.762;2024-01-27T09:51:52;100148.84;;;4.24;100.00
17505;BME280;8870;50.950;11.762;2024-01-27T09:57:25;100155.41;;;4.35;100.00
17505;BME280;8870;50.950;11.762;2024-01-27T10:02:46;100146.00;;;4.45;100.00
17505;BME280;8870;50.950;11.762;2024-01-27T10:08:17;100158.25;;;4.49;100.00
17505;BME280;8870;50.950;11.762;2024-01-27T10:13:35;100150.69;;;4.57;100.00
17505;BME280;8870;50.950;11.762;2024-01-27T10:19:13;100149.50;;;4.63;100.00
17505;BME280;8870;50.950;11.762;2024-01-27T10:24:33;100147.22;;;4.73;100.00
17505;BME280;8870;50.950;11.762;2024-01-27T10:30:05;100147.44;;;4.86;100.00
17505;BME280;8870;50.950;11.762;2024-01-27T10:35:27;100151.25;;;4.98;100.00
17505;BME280;8870;50.950;11.762;2024-01-27T10:40:58;100142.06;;;5.03;100.00
17505;BME280;8870;50.950;11.762;2024-01-27T10:46:30;100154.13;;;5.11;100.00
17505;BME280;8870;50.950;11.762;2024-01-27T10:51:54;100160.69;;;5.21;100.00
17505;BME280;8870;50.950;11.762;2024-01-27T10:57:26;100161.22;;;5.28;100.00
17505;BME280;8870;50.950;11.762;2024-01-27T11:02:45;100148.63;;;5.30;100.00
17505;BME280;8870;50.950;11.762;2024-01-27T11:08:20;100147.06;;;5.42;100.00
17505;BME280;8870;50.950;11.762;2024-01-27T11:13:43;100155.63;;;5.48;100.00
17505;BME280;8870;50.950;11.762;2024-01-27T11:19:17;100161.56;;;5.53;100.00
17505;BME280;8870;50.950;11.762;2024-01-27T11:24:37;100151.25;;;5.63;100.00
17505;BME280;8870;50.950;11.762;2024-01-27T11:30:25;100153.72;;;5.66;100.00
17505;BME280;8870;50.950;11.762;2024-01-27T11:35:45;100151.75;;;5.70;100.00
17505;BME280;8870;50.950;11.762;2024-01-27T11:41:30;100167.59;;;5.73;100.00
17505;BME280;8870;50.950;11.762;2024-01-27T11:47:04;100158.47;;;5.77;100.00
17505;BME280;8870;50.950;11.762;2024-01-27T11:52:22;100153.53;;;5.85;100.00
17505;BME280;8870;50.950;11.762;2024-01-27T11:57:56;100143.50;;;5.89;100.00
17505;BME280;8870;50.950;11.762;2024-01-27T12:03:15;100144.78;;;5.98;100.00
17505;BME280;8870;50.950;11.762;2024-01-27T12:08:47;100127.72;;;6.00;100.00
17505;BME280;8870;50.950;11.762;2024-01-27T12:14:08;100117.91;;;6.01;100.00
17505;BME280;8870;50.950;11.762;2024-01-27T12:19:45;100124.81;;;6.05;100.00
17505;BME280;8870;50.950;11.762;2024-01-27T12:25:08;100122.81;;;6.09;100.00
17505;BME280;8870;50.950;11.762;2024-01-27T12:30:42;100136.69;;;6.15;100.00
17505;BME280;8870;50.950;11.762;2024-01-27T12:36:01;100132.50;;;6.26;100.00
17505;BME280;8870;50.950;11.762;2024-01-27T12:41:34;100134.81;;;6.32;100.00
17505;BME280;8870;50.950;11.762;2024-01-27T12:46:54;100131.56;;;6.41;100.00
17505;BME280;8870;50.950;11.762;2024-01-27T12:52:26;100124.31;;;6.43;100.00
17505;BME280;8870;50.950;11.762;2024-01-27T12:57:45;100120.41;;;6.49;100.00
17505;BME280;8870;50.950;11.762;2024-01-27T13:03:19;100132.56;;;6.55;100.00
17505;BME280;8870;50.950;11.762;2024-01-27T13:08:38;100122.53;;;6.58;100.00
17505;BME280;8870;50.950;11.762;2024-01-27T13:14:10;100135.38;;;6.68;100.00
17505;BME280;8870;50.950;11.762;2024-01-27T13:19:32;100124.06;;;6.77;100.00
17505;BME280;8870;50.950;11.762;2024-01-27T13:25:03;100131.22;;;6.76;100.00
17505;BME280;8870;50.950;11.762;2024-01-27T13:30:23;100132.97;;;6.77;100.00
17505;BME280;8870;50.950;11.762;2024-01-27T13:35:56;100138.34;;;6.92;100.00
17505;BME280;8870;50.950;11.762;2024-01-27T13:41:15;100151.38;;;6.98;100.00
17505;BME280;8870;50.950;11.762;2024-01-27T13:46:46;100147.25;;;6.92;100.00
17505;BME280;8870;50.950;11.762;2024-01-27T13:52:07;100146.19;;;6.95;100.00
17505;BME280;8870;50.950;11.762;2024-01-27T13:57:39;100143.50;;;6.95;100.00
17505;BME280;8870;50.950;11.762;2024-01-27T14:03:04;100150.19;;;7.02;100.00
17505;BME280;8870;50.950;11.762;2024-01-27T14:08:38;100167.72;;;7.08;100.00
17505;BME280;8870;50.950;11.762;2024-01-27T14:13:56;100162.84;;;7.15;100.00
17505;BME280;8870;50.950;11.762;2024-01-27T14:19:27;100155.19;;;7.23;100.00
17505;BME280;8870;50.950;11.762;2024-01-27T14:24:48;100168.38;;;7.26;100.00
17505;BME280;8870;50.950;11.762;2024-01-27T14:30:19;100162.72;;;7.31;100.00
17505;BME280;8870;50.950;11.762;2024-01-27T14:35:38;100169.50;;;7.36;100.00
17505;BME280;8870;50.950;11.762;2024-01-27T14:41:12;100177.00;;;7.31;100.00
17505;BME280;8870;50.950;11.762;2024-01-27T14:46:31;100175.38;;;7.29;100.00
17505;BME280;8870;50.950;11.762;2024-01-27T14:52:05;100185.81;;;7.19;100.00
17505;BME280;8870;50.950;11.762;2024-01-27T14:57:26;100178.81;;;7.02;100.00
17505;BME280;8870;50.950;11.762;2024-01-27T15:02:50;100195.84;;;6.86;100.00
17505;BME280;8870;50.950;11.762;2024-01-27T15:08:16;100183.28;;;6.72;100.00
17505;BME280;8870;50.950;11.762;2024-01-27T15:13:37;100197.25;;;6.63;100.00
17505;BME280;8870;50.950;11.762;2024-01-27T15:19:08;100171.28;;;6.49;100.00
17505;BME280;8870;50.950;11.762;2024-01-27T15:24:26;100171.34;;;6.33;100.00
17505;BME280;8870;50.950;11.762;2024-01-27T15:30:02;100164.47;;;6.13;100.00
17505;BME280;8870;50.950;11.762;2024-01-27T15:35:21;100180.72;;;5.94;100.00
17505;BME280;8870;50.950;11.762;2024-01-27T15:40:55;100176.94;;;5.66;100.00
17505;BME280;8870;50.950;11.762;2024-01-27T15:46:16;100182.69;;;5.42;100.00
17505;BME280;8870;50.950;11.762;2024-01-27T15:51:47;100175.00;;;5.20;100.00
17505;BME280;8870;50.950;11.762;2024-01-27T15:57:05;100192.88;;;5.02;100.00
17505;BME280;8870;50.950;11.762;2024-01-27T16:02:38;100210.69;;;4.85;100.00
17505;BME280;8870;50.950;11.762;2024-01-27T16:07:57;100213.97;;;4.73;100.00
17505;BME280;8870;50.950;11.762;2024-01-27T16:13:29;100219.72;;;4.65;100.00
17505;BME280;8870;50.950;11.762;2024-01-27T16:18:51;100217.53;;;4.56;100.00
17505;BME280;8870;50.950;11.762;2024-01-27T16:24:24;100227.88;;;4.44;100.00
17505;BME280;8870;50.950;11.762;2024-01-27T16:29:42;100215.72;;;4.39;100.00
17505;BME280;8870;50.950;11.762;2024-01-27T16:35:16;100217.13;;;4.28;100.00
17505;BME280;8870;50.950;11.762;2024-01-27T16:40:34;100220.44;;;4.14;100.00
17505;BME280;8870;50.950;11.762;2024-01-27T16:46:06;100223.81;;;4.00;100.00
17505;BME280;8870;50.950;11.762;2024-01-27T16:51:28;100250.75;;;3.94;100.00
17505;BME280;8870;50.950;11.762;2024-01-27T16:56:59;100255.38;;;3.91;100.00
17505;BME280;8870;50.950;11.762;2024-01-27T17:02:18;100255.47;;;3.89;100.00
17505;BME280;8870;50.950;11.762;2024-01-27T17:07:56;100255.81;;;3.81;100.00
17505;BME280;8870;50.950;11.762;2024-01-27T17:13:16;100268.00;;;3.68;100.00
17505;BME280;8870;50.950;11.762;2024-01-27T17:18:48;100264.84;;;3.60;100.00
17505;BME280;8870;50.950;11.762;2024-01-27T17:24:10;100254.44;;;3.53;100.00
17505;BME280;8870;50.950;11.762;2024-01-27T17:29:41;100269.88;;;3.47;100.00
17505;BME280;8870;50.950;11.762;2024-01-27T17:35:00;100278.66;;;3.49;100.00
17505;BME280;8870;50.950;11.762;2024-01-27T17:40:36;100264.47;;;3.48;100.00
17505;BME280;8870;50.950;11.762;2024-01-27T17:45:55;100273.59;;;3.43;100.00
17505;BME280;8870;50.950;11.762;2024-01-27T17:51:27;100286.13;;;3.41;100.00
17505;BME280;8870;50.950;11.762;2024-01-27T17:56:49;100284.53;;;3.36;100.00
17505;BME280;8870;50.950;11.762;2024-01-27T18:02:13;100278.59;;;3.30;100.00
17505;BME280;8870;50.950;11.762;2024-01-27T18:07:38;100271.03;;;3.20;100.00
17505;BME280;8870;50.950;11.762;2024-01-27T18:12:59;100269.00;;;3.06;100.00
17505;BME280;8870;50.950;11.762;2024-01-27T18:18:30;100277.84;;;2.86;100.00
17505;BME280;8870;50.950;11.762;2024-01-27T18:23:49;100276.00;;;2.68;100.00
17505;BME280;8870;50.950;11.762;2024-01-27T18:29:23;100265.13;;;2.52;100.00
17505;BME280;8870;50.950;11.762;2024-01-27T18:34:41;100271.19;;;2.33;100.00
17505;BME280;8870;50.950;11.762;2024-01-27T18:40:13;100261.56;;;2.08;100.00
17505;BME280;8870;50.950;11.762;2024-01-27T18:45:35;100276.50;;;1.89;100.00
17505;BME280;8870;50.950;11.762;2024-01-27T18:51:07;100281.00;;;1.87;100.00
17505;BME280;8870;50.950;11.762;2024-01-27T18:56:25;100288.59;;;1.74;100.00
17505;BME280;8870;50.950;11.762;2024-01-27T19:02:00;100290.06;;;1.59;100.00
17505;BME280;8870;50.950;11.762;2024-01-27T19:07:27;100292.22;;;1.47;100.00
17505;BME280;8870;50.950;11.762;2024-01-27T19:13:12;100303.00;;;1.44;100.00
17505;BME280;8870;50.950;11.762;2024-01-27T19:18:34;100311.91;;;1.42;100.00
17505;BME280;8870;50.950;11.762;2024-01-27T19:24:05;100313.78;;;1.40;100.00
17505;BME280;8870;50.950;11.762;2024-01-27T19:29:23;100324.44;;;1.38;100.00
17505;BME280;8870;50.950;11.762;2024-01-27T19:34:56;100325.38;;;1.37;100.00
17505;BME280;8870;50.950;11.762;2024-01-27T19:40:15;100331.66;;;1.34;100.00
17505;BME280;8870;50.950;11.762;2024-01-27T19:45:46;100327.34;;;1.32;100.00
17505;BME280;8870;50.950;11.762;2024-01-27T19:51:07;100326.59;;;1.28;100.00
17505;BME280;8870;50.950;11.762;2024-01-27T19:56:38;100331.28;;;1.20;100.00
17505;BME280;8870;50.950;11.762;2024-01-27T20:01:56;100352.69;;;1.15;100.00
17505;BME280;8870;50.950;11.762;2024-01-27T20:07:30;100351.88;;;1.13;100.00
17505;BME280;8870;50.950;11.762;2024-01-27T20:12:49;100356.50;;;1.08;100.00
17505;BME280;8870;50.950;11.762;2024-01-27T20:18:22;100358.38;;;1.04;100.00
17505;BME280;8870;50.950;11.762;2024-01-27T20:23:43;100351.38;;;1.02;100.00
17505;BME280;8870;50.950;11.762;2024-01-27T20:29:14;100354.94;;;1.01;100.00
17505;BME280;8870;50.950;11.762;2024-01-27T20:34:33;100354.09;;;1.00;100.00
17505;BME280;8870;50.950;11.762;2024-01-27T20:40:09;100349.94;;;0.93;100.00
17505;BME280;8870;50.950;11.762;2024-01-27T20:45:27;100357.25;;;0.85;100.00
17505;BME280;8870;50.950;11.762;2024-01-27T20:50:58;100362.81;;;0.77;100.00
17505;BME280;8870;50.950;11.762;2024-01-27T20:56:20;100369.25;;;0.70;100.00
17505;BME280;8870;50.950;11.762;2024-01-27T21:01:51;100376.53;;;0.65;100.00
17505;BME280;8870;50.950;11.762;2024-01-27T21:07:13;100376.63;;;0.60;100.00
17505;BME280;8870;50.950;11.762;2024-01-27T21:12:48;100361.91;;;0.51;100.00
17505;BME280;8870;50.950;11.762;2024-01-27T21:18:06;100367.38;;;0.47;100.00
17505;BME280;8870;50.950;11.762;2024-01-27T21:23:38;100358.69;;;0.41;100.00
17505;BME280;8870;50.950;11.762;2024-01-27T21:28:59;100364.13;;;0.37;100.00
17505;BME280;8870;50.950;11.762;2024-01-27T21:34:30;100365.13;;;0.33;100.00
17505;BME280;8870;50.950;11.762;2024-01-27T21:39:48;100361.66;;;0.30;100.00
17505;BME280;8870;50.950;11.762;2024-01-27T21:45:24;100361.78;;;0.27;100.00
17505;BME280;8870;50.950;11.762;2024-01-27T21:50:55;100349.44;;;0.26;100.00
17505;BME280;8870;50.950;11.762;2024-01-27T21:56:13;100354.81;;;0.23;100.00
17505;BME280;8870;50.950;11.762;2024-01-27T22:01:49;100364.66;;;0.20;100.00
17505;BME280;8870;50.950;11.762;2024-01-27T22:07:07;100363.88;;;0.16;100.00
17505;BME280;8870;50.950;11.762;2024-01-27T22:12:38;100364.94;;;0.10;100.00
17505;BME280;8870;50.950;11.762;2024-01-27T22:17:59;100360.56;;;0.08;100.00
17505;BME280;8870;50.950;11.762;2024-01-27T22:23:30;100356.09;;;0.10;100.00
17505;BME280;8870;50.950;11.762;2024-01-27T22:28:48;100355.28;;;0.08;100.00
17505;BME280;8870;50.950;11.762;2024-01-27T22:34:22;100350.88;;;0.08;100.00
17505;BME280;8870;50.950;11.762;2024-01-27T22:39:40;100344.78;;;0.05;100.00
17505;BME280;8870;50.950;11.762;2024-01-27T22:45:11;100335.25;;;-0.01;100.00
17505;BME280;8870;50.950;11.762;2024-01-27T22:50:45;100329.25;;;-0.08;100.00
17505;BME280;8870;50.950;11.762;2024-01-27T22:56:04;100343.44;;;-0.09;100.00
17505;BME280;8870;50.950;11.762;2024-01-27T23:01:36;100339.94;;;-0.11;100.00
17505;BME280;8870;50.950;11.762;2024-01-27T23:06:57;100340.03;;;-0.14;100.00
17505;BME280;8870;50.950;11.762;2024-01-27T23:12:28;100337.47;;;-0.17;100.00
17505;BME280;8870;50.950;11.762;2024-01-27T23:17:46;100339.34;;;-0.21;100.00
17505;BME280;8870;50.950;11.762;2024-01-27T23:23:20;100344.63;;;-0.21;100.00
17505;BME280;8870;50.950;11.762;2024-01-27T23:28:38;100341.97;;;-0.19;100.00
17505;BME280;8870;50.950;11.762;2024-01-27T23:34:09;100342.06;;;-0.22;100.00
17505;BME280;8870;50.950;11.762;2024-01-27T23:39:31;100329.78;;;-0.26;100.00
17505;BME280;8870;50.950;11.762;2024-01-27T23:45:03;100332.44;;;-0.26;100.00
17505;BME280;8870;50.950;11.762;2024-01-27T23:50:37;100334.25;;;-0.28;100.00
17505;BME280;8870;50.950;11.762;2024-01-27T23:55:58;100334.19;;;-0.25;100.00
